Time;durP1;ratioP1;P1;durP2;ratioP2;P2;SDS_P1;SDS_P2;PMS_P1;PMS_P2;Temp;Humidity;BMP_temperature;BMP_pressure;BME280_temperature;BME280_humidity;BME280_pressure;Samples;Min_cycle;Max_cycle;Signal;HPM_P1;HPM_P2
2022/12/13 00:01:14;;;;;;;34.05;16.17;;;-4.20;99.90;;;;;;6102697;23;20009;-90
2022/12/13 00:03:40;;;;;;;33.33;15.43;;;-4.20;99.90;;;;;;6104361;23;20013;-89
2022/12/13 00:06:07;;;;;;;34.00;17.17;;;-4.20;99.90;;;;;;6129035;23;20021;-89
2022/12/13 00:08:33;;;;;;;39.22;15.00;;;-4.20;99.90;;;;;;6129058;23;20021;-88
2022/12/13 00:11:05;;;;;;;37.65;15.43;;;-4.30;99.90;;;;;;6127856;23;20137;-88
2022/12/13 00:13:31;;;;;;;33.28;13.73;;;-4.20;99.90;;;;;;6127714;23;20048;-89
2022/12/13 00:15:58;;;;;;;27.15;12.90;;;-4.20;99.90;;;;;;6128276;23;20017;-88
2022/12/13 00:18:24;;;;;;;31.88;13.82;;;-4.10;99.90;;;;;;6128072;23;20093;-88
2022/12/13 00:20:50;;;;;;;37.05;16.48;;;-4.10;99.90;;;;;;6153841;23;20024;-90
2022/12/13 00:23:15;;;;;;;35.88;14.65;;;-4.10;99.90;;;;;;6154963;23;20017;-89
2022/12/13 00:25:41;;;;;;;26.70;14.18;;;-4.10;99.90;;;;;;6152935;23;20457;-89
2022/12/13 00:28:07;;;;;;;33.92;14.68;;;-4.10;99.90;;;;;;6127516;23;20036;-88
2022/12/13 00:30:33;;;;;;;40.92;16.35;;;-4.10;99.90;;;;;;6152478;23;20121;-89
2022/12/13 00:32:59;;;;;;;37.15;15.95;;;-4.20;99.90;;;;;;6127052;23;20021;-89
2022/12/13 00:35:25;;;;;;;38.72;15.35;;;-4.20;99.90;;;;;;6128325;23;20019;-89
2022/12/13 00:37:53;;;;;;;29.67;12.38;;;-4.20;99.90;;;;;;6102664;23;20476;-89
2022/12/13 00:40:20;;;;;;;31.98;13.95;;;-4.10;99.90;;;;;;6154841;23;20037;-88
2022/12/13 00:42:45;;;;;;;35.22;15.52;;;-4.00;99.90;;;;;;6103522;23;20037;-89
2022/12/13 00:45:11;;;;;;;33.88;16.15;;;-4.00;99.90;;;;;;6154841;23;20022;-88
2022/12/13 00:47:37;;;;;;;42.55;17.15;;;-3.90;99.90;;;;;;6103645;23;20076;-88
2022/12/13 00:50:04;;;;;;;32.55;15.90;;;-3.90;99.90;;;;;;6127174;23;20029;-88
2022/12/13 00:52:30;;;;;;;32.00;15.23;;;-4.00;99.90;;;;;;6127752;23;20097;-88
2022/12/13 00:54:56;;;;;;;33.58;15.13;;;-4.10;99.90;;;;;;6127234;23;20009;-89
2022/12/13 00:57:21;;;;;;;31.52;13.70;;;-4.10;99.90;;;;;;6127114;23;20064;-88
2022/12/13 00:59:47;;;;;;;29.67;13.30;;;-4.10;99.90;;;;;;6127958;23;20084;-89
2022/12/13 01:02:13;;;;;;;29.67;13.75;;;-4.10;99.90;;;;;;6126965;23;20345;-89
2022/12/13 01:04:38;;;;;;;32.22;12.73;;;-4.10;99.90;;;;;;6153775;23;20013;-88
2022/12/13 01:07:04;;;;;;;28.38;12.75;;;-4.00;99.90;;;;;;6152828;23;20381;-89
2022/12/13 01:09:31;;;;;;;20.52;10.82;;;-3.90;99.90;;;;;;6153807;23;20019;-89
2022/12/13 01:12:05;;;;;;;35.70;13.82;;;-3.90;99.90;;;;;;6101648;23;20023;-88
2022/12/13 01:14:34;;;;;;;33.00;14.00;;;-3.90;99.90;;;;;;6153851;23;20068;-89
2022/12/13 01:17:00;;;;;;;30.65;13.90;;;-3.80;99.90;;;;;;6125842;23;20014;-88
2022/12/13 01:19:27;;;;;;;32.60;14.43;;;-3.90;99.90;;;;;;6127895;23;20021;-87
2022/12/13 01:21:56;;;;;;;34.50;13.40;;;-3.90;99.90;;;;;;6133692;23;20311;-88
2022/12/13 01:24:23;;;;;;;31.30;13.55;;;-3.90;99.90;;;;;;6161453;23;20025;-88
2022/12/13 01:26:49;;;;;;;27.45;14.02;;;-3.90;99.90;;;;;;6103632;23;20029;-88
2022/12/13 01:29:16;;;;;;;31.52;14.38;;;-4.00;99.90;;;;;;6128026;23;20056;-89
2022/12/13 01:31:41;;;;;;;28.42;13.13;;;-4.00;99.90;;;;;;6127199;23;20342;-88
2022/12/13 01:34:11;;;;;;;33.05;14.13;;;-4.10;99.90;;;;;;6153682;23;20014;-88
2022/12/13 01:36:39;;;;;;;30.83;13.70;;;-4.10;99.90;;;;;;6128168;23;20037;-88
2022/12/13 01:39:05;;;;;;;34.22;15.20;;;-4.10;99.90;;;;;;6127382;23;20013;-89
2022/12/13 01:41:32;;;;;;;32.05;14.15;;;-4.20;99.90;;;;;;6153817;23;20064;-88
2022/12/13 01:44:01;;;;;;;32.50;14.45;;;-4.20;99.90;;;;;;6126897;23;20021;-88
2022/12/13 01:46:29;;;;;;;29.55;13.45;;;-4.20;99.90;;;;;;6127845;23;20052;-87
2022/12/13 01:49:09;;;;;;;32.22;14.93;;;-4.20;99.90;;;;;;6127026;23;20018;-89
2022/12/13 01:51:42;;;;;;;29.42;13.50;;;-4.20;99.90;;;;;;6153893;23;20482;-88
2022/12/13 01:54:12;;;;;;;26.88;14.23;;;-4.30;99.90;;;;;;6127507;23;20088;-88
2022/12/13 01:56:46;;;;;;;28.65;12.10;;;-4.30;99.90;;;;;;6126399;23;20541;-88
2022/12/13 01:59:14;;;;;;;32.97;14.15;;;-4.20;99.90;;;;;;6127114;23;20017;-88
2022/12/13 02:01:40;;;;;;;29.08;14.25;;;-4.30;99.90;;;;;;6127980;23;20017;-88
2022/12/13 02:04:07;;;;;;;26.92;12.70;;;-4.30;99.90;;;;;;6152788;23;20334;-88
2022/12/13 02:06:44;;;;;;;29.00;13.75;;;-4.30;99.90;;;;;;6153699;23;20010;-89
2022/12/13 02:09:10;;;;;;;30.02;14.20;;;-4.30;99.90;;;;;;6127533;23;20088;-88
2022/12/13 02:11:39;;;;;;;26.98;12.38;;;-4.40;99.90;;;;;;6150826;23;20059;-87
2022/12/13 02:14:05;;;;;;;33.30;13.75;;;-4.40;99.90;;;;;;6152475;23;20018;-87
2022/12/13 02:17:19;;;;;;;29.23;15.65;;;-4.40;99.90;;;;;;6153414;23;20013;-88
2022/12/13 02:20:03;;;;;;;30.58;14.93;;;-4.40;99.90;;;;;;6041907;23;20111;-88
2022/12/13 02:22:59;;;;;;;34.70;16.58;;;-4.50;99.90;;;;;;6063337;23;20011;-88
2022/12/13 02:25:27;;;;;;;31.08;13.55;;;-4.50;99.90;;;;;;6039410;23;20014;-88
2022/12/13 02:28:36;;;;;;;27.08;13.15;;;-4.50;99.90;;;;;;6038009;23;20022;-87
2022/12/13 02:31:16;;;;;;;32.88;14.23;;;-4.60;99.90;;;;;;5950440;24;20041;-87
2022/12/13 02:34:00;;;;;;;27.50;13.85;;;-4.60;99.90;;;;;;5949916;24;20028;-88
2022/12/13 02:36:29;;;;;;;27.00;12.82;;;-4.60;99.90;;;;;;5949453;24;20016;-87
2022/12/13 02:39:06;;;;;;;29.80;12.10;;;-4.60;99.90;;;;;;5948542;24;20406;-88
2022/12/13 02:41:48;;;;;;;29.58;12.32;;;-4.60;99.90;;;;;;5949608;24;20555;-87
2022/12/13 02:44:17;;;;;;;28.23;13.68;;;-4.60;99.90;;;;;;5904095;24;20482;-88
2022/12/13 02:46:52;;;;;;;30.80;14.38;;;-4.60;99.90;;;;;;5950019;24;20446;-89
2022/12/13 02:49:19;;;;;;;29.15;11.70;;;-4.60;99.90;;;;;;5932777;23;20020;-88
2022/12/13 02:51:46;;;;;;;29.75;12.60;;;-4.60;99.90;;;;;;6010612;23;20019;-88
2022/12/13 02:54:11;;;;;;;27.05;11.50;;;-4.60;99.90;;;;;;6010509;23;20062;-87
2022/12/13 02:56:37;;;;;;;29.50;13.23;;;-4.70;99.90;;;;;;6010967;23;20472;-87
2022/12/13 02:59:11;;;;;;;24.92;11.90;;;-4.70;99.90;;;;;;6010057;23;20410;-88
2022/12/13 03:01:52;;;;;;;24.08;11.52;;;-4.70;99.90;;;;;;6012159;23;20015;-88
2022/12/13 03:06:28;;;;;;;23.50;12.05;;;-4.70;99.90;;;;;;6012235;23;20026;-88
2022/12/13 03:07:38;;;;;;;26.40;12.93;;;-4.70;99.90;;;;;;6138977;23;20021;-89
2022/12/13 03:10:22;;;;;;;31.50;14.35;;;-4.70;99.90;;;;;;6160646;23;20092;-88
2022/12/13 03:16:03;;;;;;;28.75;12.77;;;-4.80;99.90;;;;;;6152854;23;20358;-88
2022/12/13 03:18:31;;;;;;;30.88;14.18;;;-4.80;99.90;;;;;;6130557;23;20013;-88
2022/12/13 03:21:03;;;;;;;29.50;13.55;;;-4.80;99.90;;;;;;6155067;23;20069;-88
2022/12/13 03:23:29;;;;;;;24.30;11.73;;;-4.90;99.90;;;;;;6153239;23;20040;-88
2022/12/13 03:26:00;;;;;;;30.98;14.82;;;-4.90;99.90;;;;;;6151136;23;20399;-88
2022/12/13 03:28:28;;;;;;;32.55;13.32;;;-4.90;99.90;;;;;;6151339;23;20087;-87
2022/12/13 03:30:54;;;;;;;26.85;11.57;;;-4.90;99.90;;;;;;6126481;23;20365;-89
2022/12/13 03:33:21;;;;;;;26.15;14.23;;;-4.90;99.90;;;;;;6153649;23;20429;-88
2022/12/13 03:35:47;;;;;;;24.33;12.90;;;-4.90;99.90;;;;;;6149926;23;20089;-88
2022/12/13 03:38:14;;;;;;;29.95;12.43;;;-4.90;99.90;;;;;;6152570;23;20013;-88
2022/12/13 03:40:40;;;;;;;31.27;13.55;;;-4.90;99.90;;;;;;6150223;23;20096;-88
2022/12/13 03:43:06;;;;;;;27.67;11.70;;;-4.90;99.90;;;;;;6152047;23;20378;-87
2022/12/13 03:45:32;;;;;;;29.38;13.35;;;-5.00;99.90;;;;;;6151244;23;20096;-88
2022/12/13 03:47:58;;;;;;;29.92;11.85;;;-5.00;99.90;;;;;;6175484;23;20017;-87
2022/12/13 03:50:23;;;;;;;30.25;14.23;;;-5.00;99.90;;;;;;6151601;23;20415;-88
2022/12/13 03:52:50;;;;;;;30.45;12.90;;;-5.00;99.90;;;;;;6176214;23;20014;-88
2022/12/13 03:55:17;;;;;;;26.80;12.82;;;-4.90;99.90;;;;;;6151218;23;20013;-87
2022/12/13 03:57:43;;;;;;;33.65;14.68;;;-5.10;99.90;;;;;;6151809;23;20022;-87
2022/12/13 04:00:10;;;;;;;29.35;13.13;;;-5.00;99.90;;;;;;6151642;23;20112;-88
2022/12/13 04:02:35;;;;;;;30.17;11.82;;;-5.00;99.90;;;;;;6151844;23;20014;-88
2022/12/13 04:05:01;;;;;;;30.02;14.20;;;-5.00;99.90;;;;;;6177652;23;20048;-87
2022/12/13 04:07:27;;;;;;;27.92;13.25;;;-5.10;99.90;;;;;;6177375;23;20018;-86
2022/12/13 04:09:52;;;;;;;27.88;13.77;;;-5.00;99.90;;;;;;6154450;23;20017;-87
2022/12/13 04:15:02;;;;;;;28.63;11.75;;;-5.00;99.90;;;;;;6152622;23;20014;-87
2022/12/13 04:17:28;;;;;;;29.65;13.52;;;-5.00;99.90;;;;;;6152962;23;20017;-88
2022/12/13 04:19:54;;;;;;;31.42;12.90;;;-5.00;99.90;;;;;;6177352;23;20025;-87
2022/12/13 04:22:19;;;;;;;24.58;11.57;;;-5.00;99.90;;;;;;6150718;23;20029;-90
2022/12/13 04:24:45;;;;;;;24.65;12.07;;;-5.00;99.90;;;;;;6154291;23;20041;-88
2022/12/13 04:27:10;;;;;;;25.67;11.23;;;-5.00;99.90;;;;;;6177483;23;20024;-88
2022/12/13 04:29:36;;;;;;;22.25;11.73;;;-5.00;99.90;;;;;;6177609;23;20020;-88
2022/12/13 04:32:05;;;;;;;25.52;11.07;;;-5.10;99.90;;;;;;6152453;23;20044;-87
2022/12/13 04:34:31;;;;;;;25.02;11.40;;;-5.10;99.90;;;;;;6151690;23;20024;-87
2022/12/13 04:36:57;;;;;;;27.13;13.50;;;-5.10;99.90;;;;;;6153648;23;20288;-91
2022/12/13 04:39:23;;;;;;;28.70;13.10;;;-5.10;99.90;;;;;;6155456;23;20020;-90
2022/12/13 04:41:50;;;;;;;28.88;10.80;;;-5.10;99.90;;;;;;6179189;23;20014;-89
2022/12/13 04:44:16;;;;;;;28.15;12.30;;;-5.10;99.90;;;;;;6154162;23;20020;-89
2022/12/13 04:46:41;;;;;;;24.30;12.00;;;-5.10;99.90;;;;;;6155417;23;20117;-90
2022/12/13 04:49:07;;;;;;;30.63;12.70;;;-5.10;99.90;;;;;;6179526;23;20017;-91
2022/12/13 04:51:33;;;;;;;35.38;12.07;;;-5.00;99.90;;;;;;6156002;23;20027;-91
2022/12/13 04:53:58;;;;;;;25.63;10.88;;;-5.00;99.90;;;;;;6177849;23;20017;-89
2022/12/13 04:56:24;;;;;;;30.08;12.18;;;-5.10;99.90;;;;;;6179498;23;20014;-89
2022/12/13 04:58:50;;;;;;;27.15;13.82;;;-5.10;99.90;;;;;;6180294;23;20017;-90
2022/12/13 05:01:15;;;;;;;25.58;12.48;;;-5.10;99.90;;;;;;6156970;23;20474;-89
2022/12/13 05:03:41;;;;;;;29.85;13.70;;;-5.10;99.90;;;;;;6129272;23;20100;-91
2022/12/13 05:06:08;;;;;;;26.67;12.05;;;-5.10;99.90;;;;;;6154951;23;20457;-90
2022/12/13 05:08:36;;;;;;;30.17;13.75;;;-5.10;99.90;;;;;;6153327;23;20010;-91
2022/12/13 05:11:02;;;;;;;25.67;13.05;;;-5.10;99.90;;;;;;6153137;23;20092;-90
2022/12/13 05:13:28;;;;;;;24.92;11.23;;;-5.00;99.90;;;;;;6154351;23;20013;-90
2022/12/13 05:15:55;;;;;;;29.40;12.82;;;-5.00;99.90;;;;;;6154468;23;20013;-90
2022/12/13 05:18:21;;;;;;;29.98;12.73;;;-4.90;99.90;;;;;;6159701;23;20006;-91
2022/12/13 05:20:49;;;;;;;28.00;12.80;;;-4.90;99.90;;;;;;6142938;23;20072;-90
2022/12/13 05:23:16;;;;;;;30.95;12.82;;;-4.80;99.90;;;;;;6131038;23;20013;-90
2022/12/13 05:25:41;;;;;;;30.48;13.48;;;-4.80;99.90;;;;;;6104969;23;20068;-90
2022/12/13 05:28:07;;;;;;;27.73;12.35;;;-4.80;99.90;;;;;;6152329;23;20026;-90
2022/12/13 05:30:33;;;;;;;32.92;14.27;;;-4.80;99.90;;;;;;6152621;23;20033;-89
2022/12/13 05:32:58;;;;;;;31.45;15.05;;;-4.70;99.90;;;;;;6156651;23;20032;-90
2022/12/13 05:35:24;;;;;;;31.58;12.77;;;-4.60;99.90;;;;;;6128914;23;20037;-87
2022/12/13 05:37:53;;;;;;;26.65;14.38;;;-4.70;99.90;;;;;;6130343;23;20021;-87
2022/12/13 05:40:19;;;;;;;31.17;13.43;;;-4.60;99.90;;;;;;6127316;23;20018;-88
2022/12/13 05:42:44;;;;;;;32.05;14.50;;;-4.60;99.90;;;;;;6125269;23;20056;-86
2022/12/13 05:45:11;;;;;;;31.88;13.77;;;-4.60;99.90;;;;;;6149235;23;20389;-87
2022/12/13 05:47:37;;;;;;;32.53;13.45;;;-4.60;99.90;;;;;;6127243;23;20017;-87
2022/12/13 05:50:03;;;;;;;29.02;13.45;;;-4.60;99.90;;;;;;6152483;23;20498;-87
2022/12/13 05:52:29;;;;;;;35.10;14.18;;;-4.60;99.90;;;;;;6127267;23;20375;-86
2022/12/13 05:54:55;;;;;;;33.03;14.10;;;-4.60;99.90;;;;;;6126930;23;20014;-86
2022/12/13 05:57:22;;;;;;;36.45;13.95;;;-4.60;99.90;;;;;;6127660;23;20119;-86
2022/12/13 05:59:47;;;;;;;36.50;15.45;;;-4.60;99.90;;;;;;6100424;23;20014;-86
2022/12/13 06:02:13;;;;;;;37.85;14.45;;;-4.60;99.90;;;;;;6103409;23;20044;-87
2022/12/13 06:04:39;;;;;;;39.35;16.50;;;-4.60;99.90;;;;;;6102750;23;20092;-87
2022/12/13 06:07:05;;;;;;;36.60;14.60;;;-4.70;99.90;;;;;;6149163;23;20081;-87
2022/12/13 06:09:30;;;;;;;30.70;13.10;;;-4.70;99.90;;;;;;6152628;23;20069;-86
2022/12/13 06:11:56;;;;;;;36.63;14.65;;;-4.70;99.90;;;;;;6151910;23;20029;-84
2022/12/13 06:14:22;;;;;;;29.73;13.48;;;-4.80;99.90;;;;;;6149762;23;20013;-86
2022/12/13 06:16:47;;;;;;;32.42;15.43;;;-4.70;99.90;;;;;;6152245;23;20040;-83
2022/12/13 06:19:13;;;;;;;33.47;13.98;;;-4.80;99.90;;;;;;6126134;23;20021;-83
2022/12/13 06:21:39;;;;;;;40.45;14.82;;;-4.80;99.90;;;;;;6130018;23;20063;-84
2022/12/13 06:24:06;;;;;;;31.35;15.30;;;-4.80;99.90;;;;;;6180376;23;20051;-84
2022/12/13 06:26:32;;;;;;;38.08;16.00;;;-4.80;99.90;;;;;;6180243;23;20013;-84
2022/12/13 06:28:58;;;;;;;29.83;13.68;;;-4.80;99.90;;;;;;6180958;23;20013;-84
2022/12/13 06:31:24;;;;;;;37.40;15.45;;;-4.80;99.90;;;;;;6156375;23;20088;-84
2022/12/13 06:33:50;;;;;;;34.55;12.85;;;-4.80;99.90;;;;;;6182223;23;20096;-84
2022/12/13 06:36:16;;;;;;;33.22;15.13;;;-4.80;99.90;;;;;;6181655;23;20013;-85
2022/12/13 06:38:41;;;;;;;37.45;13.85;;;-4.80;99.90;;;;;;6157147;23;20430;-85
2022/12/13 06:41:14;;;;;;;37.75;15.48;;;-4.70;99.90;;;;;;6154382;23;20017;-86
2022/12/13 06:43:45;;;;;;;36.28;16.90;;;-4.80;99.90;;;;;;6156561;23;20013;-85
2022/12/13 06:46:11;;;;;;;30.77;14.98;;;-4.90;99.90;;;;;;6155690;23;20356;-84
2022/12/13 06:48:39;;;;;;;40.03;16.75;;;-4.80;99.90;;;;;;6133358;23;20024;-84
2022/12/13 06:51:05;;;;;;;36.05;14.38;;;-4.70;99.90;;;;;;6158154;23;20024;-85
2022/12/13 06:53:31;;;;;;;34.63;16.85;;;-4.90;99.90;;;;;;6156878;23;20013;-85
2022/12/13 06:56:03;;;;;;;33.47;15.93;;;-4.80;99.90;;;;;;6179767;23;20126;-85
2022/12/13 06:58:29;;;;;;;32.17;14.38;;;-4.80;99.90;;;;;;6182876;23;20418;-85
2022/12/13 07:01:09;;;;;;;32.33;13.98;;;-4.80;99.90;;;;;;6156046;23;20013;-85
2022/12/13 07:03:36;;;;;;;35.85;17.38;;;-4.80;99.90;;;;;;6155901;23;20048;-84
2022/12/13 07:06:08;;;;;;;38.88;16.35;;;-4.80;99.90;;;;;;6181997;23;20469;-89
2022/12/13 07:08:34;;;;;;;41.38;17.77;;;-4.80;99.90;;;;;;6155705;23;20067;-92
2022/12/13 07:11:01;;;;;;;35.78;15.65;;;-4.80;99.90;;;;;;6193520;23;20013;-91
2022/12/13 07:13:29;;;;;;;30.38;14.70;;;-4.80;99.90;;;;;;6187532;23;20016;-91
2022/12/13 07:15:55;;;;;;;32.10;13.60;;;-4.80;99.90;;;;;;6180355;23;20369;-87
2022/12/13 07:18:21;;;;;;;39.70;16.83;;;-4.70;99.90;;;;;;6131539;23;20020;-87
2022/12/13 07:20:47;;;;;;;32.72;14.23;;;-4.80;99.90;;;;;;6137990;23;20079;-87
2022/12/13 07:23:13;;;;;;;36.58;15.20;;;-4.80;99.90;;;;;;6149640;23;20033;-86
2022/12/13 07:25:39;;;;;;;43.58;17.23;;;-4.80;99.90;;;;;;6125339;23;20014;-86
2022/12/13 07:28:07;;;;;;;31.80;14.50;;;-4.70;99.90;;;;;;6151180;23;20045;-87
2022/12/13 07:30:36;;;;;;;42.78;16.17;;;-4.70;99.90;;;;;;6125869;23;20087;-87
2022/12/13 07:33:03;;;;;;;36.88;15.85;;;-4.70;99.90;;;;;;6151462;23;20036;-85
2022/12/13 07:35:29;;;;;;;33.75;15.18;;;-4.70;99.90;;;;;;6126759;23;20014;-85
2022/12/13 07:37:55;;;;;;;37.05;16.17;;;-4.70;99.90;;;;;;6123724;23;20068;-85
2022/12/13 07:40:21;;;;;;;45.92;18.50;;;-4.70;99.90;;;;;;6128485;23;20010;-88
2022/12/13 07:42:53;;;;;;;42.67;16.92;;;-4.70;99.90;;;;;;6155582;23;20021;-86
2022/12/13 07:45:19;;;;;;;36.90;16.80;;;-4.60;99.90;;;;;;6155993;23;20092;-87
2022/12/13 07:47:45;;;;;;;37.15;15.95;;;-4.60;99.90;;;;;;6155507;23;20027;-85
2022/12/13 07:50:11;;;;;;;48.50;19.88;;;-4.60;99.90;;;;;;6155132;23;20049;-85
2022/12/13 07:52:37;;;;;;;42.65;19.48;;;-4.60;99.90;;;;;;6152458;23;20016;-85
2022/12/13 07:55:03;;;;;;;41.75;17.13;;;-4.50;99.90;;;;;;6124520;23;20017;-85
2022/12/13 07:57:29;;;;;;;45.47;19.02;;;-4.60;99.90;;;;;;6154679;23;20025;-84
2022/12/13 07:59:55;;;;;;;40.83;16.73;;;-4.60;99.90;;;;;;6128189;23;20040;-85
2022/12/13 08:02:21;;;;;;;47.67;20.00;;;-4.60;99.90;;;;;;6127764;23;20017;-86
2022/12/13 08:04:47;;;;;;;45.20;18.67;;;-4.60;99.90;;;;;;6152298;23;20014;-86
2022/12/13 08:07:13;;;;;;;41.03;17.52;;;-4.60;99.90;;;;;;6105070;23;20509;-86
2022/12/13 08:09:38;;;;;;;37.55;17.75;;;-4.60;99.90;;;;;;6151470;23;20017;-86
2022/12/13 08:12:04;;;;;;;36.90;16.60;;;-4.60;99.90;;;;;;6154231;23;20017;-86
2022/12/13 08:14:30;;;;;;;51.55;21.05;;;-4.50;99.90;;;;;;6152869;23;20020;-85
2022/12/13 08:16:56;;;;;;;44.75;18.20;;;-4.50;99.90;;;;;;6103211;23;20022;-85
2022/12/13 08:19:22;;;;;;;43.38;19.88;;;-4.50;99.90;;;;;;6105653;23;20064;-86
2022/12/13 08:21:50;;;;;;;44.20;17.50;;;-4.30;99.90;;;;;;6130100;23;20047;-87
2022/12/13 08:24:15;;;;;;;42.10;18.45;;;-4.40;99.90;;;;;;6153278;23;20018;-87
2022/12/13 08:26:41;;;;;;;47.58;20.88;;;-4.40;99.90;;;;;;6152247;23;20024;-86
2022/12/13 08:29:07;;;;;;;45.60;20.70;;;-4.40;99.90;;;;;;6129628;23;20021;-86
2022/12/13 08:31:32;;;;;;;48.17;18.50;;;-4.30;99.90;;;;;;6155683;23;20028;-85
2022/12/13 08:33:58;;;;;;;39.28;17.75;;;-4.30;99.90;;;;;;6130500;23;20014;-85
2022/12/13 08:36:24;;;;;;;43.58;19.00;;;-4.20;99.90;;;;;;6131001;23;20017;-85
2022/12/13 08:38:53;;;;;;;42.15;19.52;;;-4.10;99.90;;;;;;6131123;23;20063;-85
2022/12/13 08:41:19;;;;;;;52.63;22.52;;;-4.10;99.90;;;;;;6132373;23;20010;-84
2022/12/13 08:43:45;;;;;;;36.58;16.85;;;-4.10;99.90;;;;;;6158631;23;20499;-86
2022/12/13 08:46:10;;;;;;;40.63;20.75;;;-4.10;99.90;;;;;;6156980;23;20021;-85
2022/12/13 08:48:36;;;;;;;53.50;21.73;;;-4.00;99.90;;;;;;6108218;23;20013;-85
2022/12/13 08:51:05;;;;;;;54.83;23.00;;;-4.00;99.90;;;;;;6154110;23;20029;-87
2022/12/13 08:53:31;;;;;;;47.30;20.00;;;-3.90;99.90;;;;;;6160605;23;20346;-85
2022/12/13 08:56:01;;;;;;;47.97;20.95;;;-3.90;99.90;;;;;;6156109;23;20096;-84
2022/12/13 08:58:27;;;;;;;44.53;21.13;;;-3.90;99.90;;;;;;6135235;23;20020;-83
2022/12/13 09:00:53;;;;;;;42.60;19.35;;;-3.80;99.90;;;;;;6134204;23;20033;-83
2022/12/13 09:03:19;;;;;;;47.58;21.58;;;-3.70;99.90;;;;;;6151889;23;20105;-84
2022/12/13 09:05:45;;;;;;;45.42;21.05;;;-3.60;99.90;;;;;;6113027;23;20013;-86
2022/12/13 09:08:11;;;;;;;53.97;22.88;;;-3.60;99.90;;;;;;6151708;23;20387;-85
2022/12/13 09:10:36;;;;;;;50.22;22.13;;;-3.50;99.90;;;;;;6128073;23;20073;-86
2022/12/13 09:13:03;;;;;;;49.47;21.80;;;-3.40;99.90;;;;;;6177168;23;20013;-86
2022/12/13 09:15:30;;;;;;;48.53;21.45;;;-3.40;99.90;;;;;;6151848;23;20005;-86
2022/12/13 09:17:56;;;;;;;52.25;24.17;;;-3.30;99.90;;;;;;6125651;23;20068;-86
2022/12/13 09:20:23;;;;;;;47.75;23.70;;;-3.30;99.90;;;;;;6126823;23;20052;-86
2022/12/13 09:22:48;;;;;;;42.22;18.88;;;-3.20;99.90;;;;;;6177480;23;20041;-85
2022/12/13 09:25:14;;;;;;;44.20;19.17;;;-3.20;99.90;;;;;;6176455;23;20044;-86
2022/12/13 09:27:40;;;;;;;41.78;19.33;;;-3.10;99.90;;;;;;6150735;23;20016;-84
2022/12/13 09:30:07;;;;;;;37.30;18.05;;;-3.00;99.90;;;;;;6147185;23;20025;-85
2022/12/13 09:32:33;;;;;;;40.28;18.55;;;-3.00;99.90;;;;;;6174215;23;20021;-85
2022/12/13 09:34:59;;;;;;;39.97;18.25;;;-3.00;99.90;;;;;;6151672;23;20065;-85
2022/12/13 09:37:24;;;;;;;41.70;17.88;;;-3.00;99.90;;;;;;6150927;23;20001;-84
2022/12/13 09:39:50;;;;;;;39.47;17.48;;;-2.90;99.90;;;;;;6170367;23;20017;-85
2022/12/13 09:42:24;;;;;;;41.25;18.35;;;-2.90;99.90;;;;;;6145898;23;20017;-85
2022/12/13 09:44:58;;;;;;;46.03;17.80;;;-2.80;99.90;;;;;;6135287;23;20021;-84
2022/12/13 09:47:36;;;;;;;41.70;16.40;;;-2.80;99.90;;;;;;6106276;23;20022;-83
2022/12/13 09:50:12;;;;;;;42.25;18.17;;;-2.70;99.90;;;;;;6157592;23;20021;-84
2022/12/13 09:52:40;;;;;;;39.40;18.30;;;-2.70;99.90;;;;;;6167209;23;20002;-86
2022/12/13 09:55:27;;;;;;;42.92;18.70;;;-2.60;99.90;;;;;;6158568;23;20017;-85
2022/12/13 09:57:54;;;;;;;41.78;16.58;;;-2.60;99.90;;;;;;6130144;23;20033;-84
2022/12/13 10:00:22;;;;;;;35.90;16.92;;;-2.50;99.90;;;;;;6158727;23;20016;-85
2022/12/13 10:02:59;;;;;;;35.95;17.98;;;-2.50;99.90;;;;;;6130956;23;20308;-85
2022/12/13 10:05:27;;;;;;;38.25;17.27;;;-2.40;99.90;;;;;;6154864;23;20320;-85
2022/12/13 10:07:56;;;;;;;33.75;16.23;;;-2.50;99.90;;;;;;6127449;23;20028;-85
2022/12/13 10:10:23;;;;;;;33.83;14.77;;;-2.40;99.90;;;;;;6138074;23;20021;-83
2022/12/13 10:13:32;;;;;;;42.70;20.05;;;-2.30;99.90;;;;;;6138262;23;20069;-83
2022/12/13 10:16:05;;;;;;;36.00;17.10;;;-2.30;99.90;;;;;;6109965;23;20069;-84
2022/12/13 10:18:37;;;;;;;41.28;16.42;;;-2.30;99.90;;;;;;6143891;23;20156;-84
2022/12/13 10:21:11;;;;;;;38.90;18.70;;;-2.20;99.90;;;;;;6154839;23;20088;-83
2022/12/13 10:23:37;;;;;;;43.13;20.75;;;-2.20;99.90;;;;;;6170523;23;20074;-81
2022/12/13 10:26:08;;;;;;;39.08;18.67;;;-2.10;99.90;;;;;;6163248;23;20025;-82
2022/12/13 10:28:35;;;;;;;42.53;19.90;;;-2.10;99.90;;;;;;6182832;23;20024;-81
2022/12/13 10:31:01;;;;;;;53.80;23.77;;;-2.10;99.90;;;;;;6158014;23;20373;-82
2022/12/13 10:33:36;;;;;;;48.53;24.45;;;-2.00;99.90;;;;;;6161401;23;20021;-82
2022/12/13 10:36:28;;;;;;;46.80;21.42;;;-2.00;99.90;;;;;;6158922;23;20049;-82
2022/12/13 10:38:56;;;;;;;45.10;22.95;;;-2.00;99.90;;;;;;6185707;23;20014;-82
2022/12/13 10:41:38;;;;;;;42.92;20.35;;;-1.90;99.90;;;;;;6169686;23;20013;-85
2022/12/13 10:44:07;;;;;;;43.97;22.58;;;-1.90;99.90;;;;;;6166590;23;20036;-86
2022/12/13 10:46:33;;;;;;;38.88;17.75;;;-1.90;99.90;;;;;;6156323;23;20017;-85
2022/12/13 10:48:59;;;;;;;43.22;19.33;;;-1.80;99.90;;;;;;6155226;23;20465;-86
2022/12/13 10:51:26;;;;;;;45.97;21.10;;;-1.80;99.90;;;;;;6156965;23;20411;-86
2022/12/13 10:53:59;;;;;;;50.65;24.73;;;-1.80;99.90;;;;;;6157815;23;20021;-85
2022/12/13 10:56:48;;;;;;;47.13;26.25;;;-1.70;99.90;;;;;;6147321;23;20017;-83
2022/12/13 10:59:16;;;;;;;46.13;22.23;;;-1.70;99.90;;;;;;6150722;23;20029;-84
2022/12/13 11:01:42;;;;;;;49.00;24.58;;;-1.70;99.90;;;;;;6150471;23;20028;-84
2022/12/13 11:04:32;;;;;;;46.33;23.73;;;-1.60;99.90;;;;;;6174727;23;20021;-83
2022/12/13 11:07:20;;;;;;;50.83;24.52;;;-1.60;99.90;;;;;;6148939;23;20343;-84
2022/12/13 11:09:46;;;;;;;45.88;22.40;;;-1.60;99.90;;;;;;6148693;23;20021;-84
2022/12/13 11:12:20;;;;;;;46.97;22.80;;;-1.50;99.90;;;;;;6148666;23;20021;-83
2022/12/13 11:14:54;;;;;;;50.45;24.35;;;-1.50;99.90;;;;;;6149708;23;20060;-83
2022/12/13 11:17:25;;;;;;;50.80;24.60;;;-1.40;99.90;;;;;;6152296;23;20024;-85
2022/12/13 11:19:56;;;;;;;47.42;22.48;;;-1.30;99.90;;;;;;6152166;23;20025;-86
2022/12/13 11:22:26;;;;;;;47.65;24.05;;;-1.30;99.90;;;;;;6148609;23;20103;-86
2022/12/13 11:25:02;;;;;;;45.25;21.58;;;-1.30;99.90;;;;;;6151437;23;20049;-85
2022/12/13 11:28:01;;;;;;;39.08;20.67;;;-1.20;99.90;;;;;;6155182;23;20339;-84
2022/12/13 11:30:56;;;;;;;43.55;19.58;;;-1.10;99.90;;;;;;6144417;23;20013;-83
2022/12/13 11:33:28;;;;;;;43.83;19.45;;;-1.10;99.90;;;;;;6132783;23;20067;-85
2022/12/13 11:36:12;;;;;;;42.20;19.35;;;-1.10;99.90;;;;;;6149054;23;20021;-84
2022/12/13 11:39:20;;;;;;;42.22;19.77;;;-1.00;99.90;;;;;;6150378;23;20013;-85
2022/12/13 11:42:00;;;;;;;38.35;18.83;;;-0.90;99.90;;;;;;6079353;23;20454;-83
2022/12/13 11:44:50;;;;;;;41.97;18.73;;;-0.90;99.90;;;;;;6148942;23;20018;-87
2022/12/13 11:47:24;;;;;;;37.03;18.13;;;-0.80;99.90;;;;;;6152335;23;20443;-86
2022/12/13 11:49:51;;;;;;;37.88;19.52;;;-0.70;99.90;;;;;;6153279;23;20010;-88
2022/12/13 11:52:38;;;;;;;47.60;23.38;;;-0.70;99.90;;;;;;6152296;23;20014;-87
2022/12/13 11:55:22;;;;;;;43.42;21.77;;;-0.70;99.90;;;;;;6150846;23;20273;-86
2022/12/13 11:57:48;;;;;;;46.85;20.80;;;-0.70;99.90;;;;;;6152021;23;20017;-87
2022/12/13 12:00:36;;;;;;;42.53;20.35;;;-0.70;99.90;;;;;;6155055;23;20018;-89
2022/12/13 12:03:16;;;;;;;49.78;24.40;;;-0.60;99.90;;;;;;6155157;23;20025;-88
2022/12/13 12:05:58;;;;;;;46.70;24.60;;;-0.60;99.90;;;;;;6172878;23;20439;-88
2022/12/13 12:08:36;;;;;;;44.30;23.50;;;-0.60;99.90;;;;;;6149061;23;20088;-89
2022/12/13 12:11:20;;;;;;;46.15;22.77;;;-0.50;99.90;;;;;;6150247;23;20336;-89
2022/12/13 12:13:53;;;;;;;44.97;22.90;;;-0.50;99.90;;;;;;6149807;23;20025;-89
2022/12/13 12:16:37;;;;;;;49.97;23.33;;;-0.40;99.90;;;;;;6124546;23;20120;-89
2022/12/13 12:19:12;;;;;;;48.78;24.02;;;-0.40;99.90;;;;;;6150909;23;20024;-90
2022/12/13 12:21:58;;;;;;;47.60;22.90;;;-0.40;99.90;;;;;;6149479;23;20118;-89
2022/12/13 12:24:40;;;;;;;42.63;21.95;;;-0.30;99.90;;;;;;6155944;23;20017;-88
2022/12/13 12:27:27;;;;;;;42.00;22.88;;;-0.30;99.90;;;;;;6151746;23;20384;-89
2022/12/13 12:30:26;;;;;;;43.88;23.08;;;-0.30;99.90;;;;;;6151724;23;20443;-89
2022/12/13 12:33:04;;;;;;;41.90;21.48;;;-0.20;99.90;;;;;;6124152;23;20438;-89
2022/12/13 12:35:45;;;;;;;45.83;21.80;;;-0.30;99.90;;;;;;6151886;23;20363;-90
2022/12/13 12:38:19;;;;;;;33.97;17.50;;;-0.20;99.90;;;;;;6151986;23;20220;-90
2022/12/13 12:40:54;;;;;;;39.88;22.85;;;-0.20;99.90;;;;;;6155709;23;20348;-89
2022/12/13 12:43:53;;;;;;;38.60;19.58;;;-0.20;99.90;;;;;;6167837;23;20005;-89
2022/12/13 12:46:44;;;;;;;43.85;22.85;;;-0.10;99.90;;;;;;6097378;23;20014;-88